Time;durP1;ratioP1;P1;durP2;ratioP2;P2;SDS_P1;SDS_P2;PMS_P1;PMS_P2;Temp;Humidity;BMP_temperature;BMP_pressure;BME280_temperature;BME280_humidity;BME280_pressure;Samples;Min_cycle;Max_cycle;Signal;HPM_P1;HPM_P2
2021/04/10 00:00:08;;;;;;;5.82;2.30;;;8.80;71.50;;;;;;4771028;30;20065;-79
2021/04/10 00:02:39;;;;;;;4.63;2.15;;;8.80;72.00;;;;;;4785146;29;20139;-79
2021/04/10 00:05:07;;;;;;;6.63;2.40;;;8.70;72.20;;;;;;4785332;30;20530;-79
2021/04/10 00:07:38;;;;;;;5.75;2.00;;;8.70;72.30;;;;;;4767679;30;20130;-79
2021/04/10 00:10:10;;;;;;;2.63;1.70;;;8.70;71.70;;;;;;4783460;30;20043;-79
2021/04/10 00:12:37;;;;;;;5.32;2.53;;;8.70;71.70;;;;;;4766726;29;567490;-79
2021/04/10 00:15:12;;;;;;;3.10;2.13;;;8.70;71.60;;;;;;4771735;30;20070;-79
2021/04/10 00:17:43;;;;;;;4.45;2.03;;;8.60;72.40;;;;;;4771232;30;20047;-79
2021/04/10 00:20:18;;;;;;;3.70;2.10;;;8.60;72.20;;;;;;4785866;30;20134;-79
2021/04/10 00:22:50;;;;;;;5.40;2.00;;;8.60;71.90;;;;;;4771896;30;20162;-79
2021/04/10 00:25:21;;;;;;;6.03;2.00;;;8.60;72.10;;;;;;4772531;30;20419;-79
2021/04/10 00:27:53;;;;;;;5.38;2.05;;;8.60;71.70;;;;;;4772013;30;20055;-79
2021/04/10 00:30:24;;;;;;;4.50;1.60;;;8.60;72.90;;;;;;4772272;30;20053;-79
2021/04/10 00:32:55;;;;;;;4.78;2.03;;;8.60;71.50;;;;;;4772143;30;20047;-79
2021/04/10 00:35:28;;;;;;;5.05;2.15;;;8.50;71.50;;;;;;4786044;30;20044;-79
2021/04/10 00:37:59;;;;;;;4.78;1.85;;;8.60;71.20;;;;;;4771205;30;20050;-79
2021/04/10 00:40:31;;;;;;;3.08;2.30;;;8.50;71.80;;;;;;4787708;30;20057;-79
2021/04/10 00:43:02;;;;;;;2.50;1.77;;;8.50;72.20;;;;;;4772031;30;20109;-79
2021/04/10 00:45:28;;;;;;;3.83;1.90;;;8.40;72.50;;;;;;4771350;30;20114;-79
2021/04/10 00:48:00;;;;;;;6.70;2.13;;;8.40;72.00;;;;;;4784968;30;20507;-79
2021/04/10 00:50:31;;;;;;;2.67;2.00;;;8.50;71.60;;;;;;4786097;30;20043;-79
2021/04/10 00:52:57;;;;;;;2.95;1.95;;;8.50;71.10;;;;;;4785625;29;20051;-79
2021/04/10 00:55:29;;;;;;;3.97;2.00;;;8.50;71.50;;;;;;4785418;30;20102;-78
2021/04/10 00:58:01;;;;;;;4.00;1.95;;;8.50;71.70;;;;;;4784816;30;20051;-79
2021/04/10 01:00:32;;;;;;;4.40;1.77;;;8.50;71.40;;;;;;4770161;30;20555;-79
2021/04/10 01:03:03;;;;;;;4.55;2.10;;;8.50;71.20;;;;;;4770865;30;20089;-79
2021/04/10 01:05:36;;;;;;;5.05;2.33;;;8.50;70.90;;;;;;4771414;30;20404;-79
2021/04/10 01:08:07;;;;;;;4.10;2.05;;;8.50;71.00;;;;;;4784810;29;20105;-79
2021/04/10 01:10:38;;;;;;;9.20;2.65;;;8.50;71.00;;;;;;4770840;30;20047;-79
2021/04/10 01:13:45;;;;;;;4.85;2.35;;;8.50;71.00;;;;;;4770553;30;20142;-79
2021/04/10 01:16:20;;;;;;;4.10;2.13;;;8.40;71.50;;;;;;4770618;30;20043;-79
2021/04/10 01:19:16;;;;;;;5.28;1.90;;;8.40;71.40;;;;;;4770110;30;20075;-79
2021/04/10 01:21:52;;;;;;;5.68;2.40;;;8.40;70.80;;;;;;4770725;30;20051;-79
2021/04/10 01:24:35;;;;;;;3.97;1.95;;;8.60;69.70;;;;;;4771289;30;20051;-79
2021/04/10 01:27:08;;;;;;;3.28;2.20;;;8.60;69.50;;;;;;4771267;30;20057;-79
2021/04/10 01:29:48;;;;;;;3.88;1.80;;;8.70;69.30;;;;;;4769822;30;20054;-79
2021/04/10 01:32:20;;;;;;;3.00;1.70;;;8.70;68.40;;;;;;4770670;30;20059;-79
2021/04/10 01:34:59;;;;;;;4.78;2.30;;;8.80;68.40;;;;;;4770544;30;20043;-79
2021/04/10 01:37:31;;;;;;;4.15;2.22;;;8.80;68.30;;;;;;4770436;30;20138;-79
2021/04/10 01:40:05;;;;;;;4.35;2.25;;;8.90;67.20;;;;;;4770487;30;20116;-79
2021/04/10 01:42:39;;;;;;;2.67;1.80;;;8.90;67.60;;;;;;4770383;30;20043;-79
2021/04/10 01:45:11;;;;;;;4.47;1.90;;;8.90;68.40;;;;;;4770626;30;20051;-79
2021/04/10 01:47:40;;;;;;;2.78;2.00;;;8.90;68.00;;;;;;4770207;30;20051;-79
2021/04/10 01:50:13;;;;;;;4.97;1.80;;;8.90;67.60;;;;;;4780764;30;20044;-79
2021/04/10 01:52:46;;;;;;;3.42;2.03;;;8.90;68.00;;;;;;4784838;29;20047;-79
2021/04/10 01:55:18;;;;;;;5.30;2.17;;;8.80;68.30;;;;;;4770680;30;20142;-79
2021/04/10 01:57:53;;;;;;;4.65;2.00;;;8.80;67.80;;;;;;4770181;30;20051;-79
2021/04/10 02:00:32;;;;;;;3.65;1.85;;;8.80;67.70;;;;;;4771097;30;20055;-79
2021/04/10 02:03:06;;;;;;;2.97;1.92;;;8.80;67.20;;;;;;4770499;30;20362;-79
2021/04/10 02:05:36;;;;;;;2.58;2.17;;;8.90;67.40;;;;;;4770395;30;20051;-79
2021/04/10 02:08:20;;;;;;;7.05;1.90;;;8.90;67.00;;;;;;4784134;30;20207;-79
2021/04/10 02:11:00;;;;;;;3.92;2.22;;;8.90;67.00;;;;;;4770619;29;20462;-79
2021/04/10 02:13:46;;;;;;;5.63;1.95;;;8.90;66.30;;;;;;4784134;30;20611;-79
2021/04/10 02:16:25;;;;;;;4.95;1.88;;;8.90;66.70;;;;;;4770648;30;20055;-79
2021/04/10 02:19:03;;;;;;;3.17;1.80;;;8.90;66.40;;;;;;4783450;30;20431;-79
2021/04/10 02:21:39;;;;;;;4.93;1.90;;;9.00;65.80;;;;;;4769530;30;20131;-79
2021/04/10 02:24:12;;;;;;;3.33;1.75;;;9.00;65.40;;;;;;4770015;30;20490;-79
2021/04/10 02:26:52;;;;;;;5.35;2.00;;;9.00;65.10;;;;;;4771388;30;20116;-79
2021/04/10 02:29:26;;;;;;;3.40;1.88;;;9.10;65.80;;;;;;4769876;30;20054;-79
2021/04/10 02:32:07;;;;;;;2.47;1.77;;;9.00;65.30;;;;;;4784226;29;20051;-79
2021/04/10 02:35:06;;;;;;;5.43;1.60;;;9.10;65.30;;;;;;4770599;30;20135;-79
2021/04/10 02:37:39;;;;;;;3.40;2.28;;;9.00;65.20;;;;;;4769439;30;20138;-79
2021/04/10 02:40:18;;;;;;;2.13;1.92;;;9.00;65.30;;;;;;4770473;30;20433;-79
2021/04/10 02:42:50;;;;;;;4.10;1.95;;;9.00;65.60;;;;;;4769926;30;20058;-79
2021/04/10 02:45:28;;;;;;;2.70;2.00;;;9.00;65.90;;;;;;4784131;30;20059;-79
2021/04/10 02:48:04;;;;;;;3.47;2.20;;;8.90;65.80;;;;;;4783689;30;20467;-79
2021/04/10 02:50:38;;;;;;;4.70;3.20;;;8.90;65.60;;;;;;4769884;30;20097;-80
2021/04/10 02:53:12;;;;;;;4.03;2.28;;;8.90;65.70;;;;;;4769535;30;20128;-79
2021/04/10 02:55:46;;;;;;;4.35;2.53;;;8.90;66.20;;;;;;4783629;30;20040;-79
2021/04/10 02:58:18;;;;;;;;;;;8.80;65.90;;;;;;4768808;30;20055;-79
2021/04/10 03:00:46;;;;;;;6.22;2.13;;;8.80;66.60;;;;;;4783763;30;19925;-79
2021/04/10 03:03:23;;;;;;;3.95;2.13;;;8.80;66.80;;;;;;4769671;30;20058;-79
2021/04/10 03:05:49;;;;;;;3.10;1.92;;;8.70;66.60;;;;;;4768368;30;20312;-79
2021/04/10 03:08:23;;;;;;;4.05;1.88;;;8.70;67.00;;;;;;4783397;30;20055;-79
2021/04/10 03:10:58;;;;;;;3.17;2.13;;;8.70;66.90;;;;;;4769858;29;20053;-79
2021/04/10 03:13:32;;;;;;;2.67;1.85;;;8.70;66.90;;;;;;4769747;30;20572;-79
2021/04/10 03:16:11;;;;;;;2.90;1.83;;;8.70;67.00;;;;;;4770015;30;20047;-79
2021/04/10 03:18:46;;;;;;;2.70;1.85;;;8.70;67.10;;;;;;4769141;30;20086;-79
2021/04/10 03:21:25;;;;;;;3.72;1.70;;;8.70;66.90;;;;;;4770537;30;20074;-79
2021/04/10 03:24:04;;;;;;;4.78;2.03;;;8.80;67.10;;;;;;4770289;30;20532;-79
2021/04/10 03:26:36;;;;;;;8.60;2.10;;;8.80;67.40;;;;;;4783990;30;20085;-79
2021/04/10 03:29:12;;;;;;;4.22;2.13;;;8.80;67.40;;;;;;4769446;30;20043;-79
2021/04/10 03:31:47;;;;;;;5.07;1.92;;;8.80;67.20;;;;;;4769935;30;20414;-80
2021/04/10 03:34:15;;;;;;;4.18;1.90;;;8.80;67.20;;;;;;4771770;30;20116;-79
2021/04/10 03:36:42;;;;;;;4.95;1.55;;;8.80;67.00;;;;;;4771775;30;20104;-79
2021/04/10 03:39:09;;;;;;;2.30;1.60;;;8.90;67.30;;;;;;4771217;30;20058;-79
2021/04/10 03:41:47;;;;;;;2.90;1.80;;;8.90;66.90;;;;;;4773357;30;20407;-79
2021/04/10 03:44:20;;;;;;;3.40;2.08;;;8.90;67.10;;;;;;4772864;30;20055;-79
2021/04/10 03:46:52;;;;;;;2.63;1.98;;;8.90;67.00;;;;;;4772394;30;20461;-79
2021/04/10 03:49:23;;;;;;;3.55;1.85;;;8.90;67.10;;;;;;4786405;30;20072;-79
2021/04/10 03:51:55;;;;;;;7.13;1.92;;;9.00;66.80;;;;;;4773156;30;20447;-79
2021/04/10 03:54:26;;;;;;;2.63;1.67;;;8.90;67.10;;;;;;4772659;30;20419;-79
2021/04/10 03:56:58;;;;;;;2.85;1.85;;;8.90;67.20;;;;;;4772546;30;20415;-79
2021/04/10 03:59:29;;;;;;;4.72;2.40;;;8.90;67.40;;;;;;4771886;30;20108;-79
2021/04/10 04:02:08;;;;;;;3.63;1.70;;;8.80;67.90;;;;;;4773480;30;20504;-79
2021/04/10 04:04:40;;;;;;;3.83;2.00;;;8.80;68.40;;;;;;4772760;30;20047;-79
2021/04/10 04:07:11;;;;;;;4.30;2.50;;;8.70;68.60;;;;;;4788030;30;20130;-79
2021/04/10 04:09:42;;;;;;;4.57;2.00;;;8.70;68.70;;;;;;4786311;30;20055;-79
2021/04/10 04:12:14;;;;;;;4.43;2.47;;;8.70;68.90;;;;;;4771896;30;20043;-79
2021/04/10 04:14:40;;;;;;;5.72;2.20;;;8.70;69.00;;;;;;4771450;30;20085;-79
2021/04/10 04:17:12;;;;;;;3.85;1.70;;;8.70;68.90;;;;;;4786269;30;20054;-79
2021/04/10 04:19:43;;;;;;;3.63;2.50;;;8.60;68.90;;;;;;4785319;30;20083;-79
2021/04/10 04:22:15;;;;;;;3.40;2.15;;;8.70;68.70;;;;;;4771810;30;20150;-79
2021/04/10 04:24:46;;;;;;;3.50;2.00;;;8.70;69.00;;;;;;4786347;30;20150;-79
2021/04/10 04:27:18;;;;;;;3.17;1.52;;;8.80;69.10;;;;;;4786003;30;20138;-79
2021/04/10 04:29:49;;;;;;;4.88;2.70;;;8.80;70.00;;;;;;4785475;30;20638;-79
2021/04/10 04:32:22;;;;;;;2.90;2.00;;;8.80;70.50;;;;;;4771986;30;20529;-79
2021/04/10 04:34:53;;;;;;;4.93;2.40;;;8.80;70.70;;;;;;4786344;30;20047;-79
2021/04/10 04:37:24;;;;;;;5.10;2.95;;;8.80;70.60;;;;;;4785815;30;20086;-79
2021/04/10 04:39:55;;;;;;;5.85;2.13;;;8.90;70.80;;;;;;4785434;30;20055;-79
2021/04/10 04:42:27;;;;;;;4.45;1.58;;;8.80;71.00;;;;;;4786229;29;20126;-79
2021/04/10 04:44:58;;;;;;;6.53;2.00;;;8.80;71.00;;;;;;4771690;30;20146;-79
2021/04/10 04:47:24;;;;;;;6.07;2.33;;;8.80;70.40;;;;;;4771429;30;20050;-79
2021/04/10 04:49:51;;;;;;;2.35;1.80;;;8.80;70.80;;;;;;4785454;30;20631;-79
2021/04/10 04:52:22;;;;;;;2.47;1.73;;;8.80;71.10;;;;;;4771888;30;20138;-79
2021/04/10 04:54:53;;;;;;;4.47;1.73;;;8.80;71.30;;;;;;4772038;30;20051;-79
2021/04/10 04:57:19;;;;;;;5.57;2.05;;;8.80;71.80;;;;;;4770266;30;20079;-79
2021/04/10 04:59:51;;;;;;;4.65;1.95;;;8.70;71.50;;;;;;4770775;30;20051;-79
2021/04/10 05:02:22;;;;;;;3.60;2.13;;;8.80;72.20;;;;;;4785468;29;20043;-79
2021/04/10 05:04:53;;;;;;;4.97;1.77;;;8.80;72.90;;;;;;4771304;30;20537;-79
2021/04/10 05:07:25;;;;;;;3.65;1.67;;;8.80;73.00;;;;;;4785295;30;20159;-79
2021/04/10 05:09:56;;;;;;;5.00;1.75;;;8.80;73.40;;;;;;4784780;30;20511;-79
2021/04/10 05:12:27;;;;;;;2.38;1.63;;;8.80;73.60;;;;;;4771878;30;20082;-79
2021/04/10 05:14:58;;;;;;;3.33;1.85;;;8.90;74.20;;;;;;4773264;30;20052;-79
2021/04/10 05:17:31;;;;;;;4.50;1.90;;;9.00;74.60;;;;;;4788868;30;20051;-79
2021/04/10 05:20:03;;;;;;;5.50;1.60;;;9.00;75.00;;;;;;4787214;30;20058;-79
2021/04/10 05:22:35;;;;;;;2.60;2.05;;;9.00;75.90;;;;;;4773400;30;20051;-79
2021/04/10 05:25:09;;;;;;;5.68;1.60;;;9.10;76.10;;;;;;4788747;29;20075;-78
2021/04/10 05:32:01;;;;;;;5.97;1.80;;;9.20;76.10;;;;;;4754280;30;20098;-78
2021/04/10 05:34:32;;;;;;;3.08;1.73;;;9.20;76.10;;;;;;4767201;30;20070;-80
2021/04/10 05:37:08;;;;;;;5.07;1.75;;;9.20;76.10;;;;;;4752733;30;20060;-78
2021/04/10 05:39:40;;;;;;;4.10;1.70;;;9.20;76.50;;;;;;4753232;30;20052;-79
2021/04/10 05:42:07;;;;;;;3.72;1.73;;;9.20;76.50;;;;;;4946656;24;20045;-79
2021/04/10 05:44:39;;;;;;;6.40;2.20;;;9.20;76.70;;;;;;4788292;29;20066;-78
2021/04/10 05:47:06;;;;;;;4.68;1.95;;;9.30;76.90;;;;;;4788099;29;20533;-79
2021/04/10 05:49:37;;;;;;;3.40;1.85;;;9.30;76.70;;;;;;4756090;30;20504;-78
2021/04/10 05:52:09;;;;;;;6.25;2.15;;;9.30;77.80;;;;;;4753061;30;20512;-78
2021/04/10 05:54:40;;;;;;;5.32;1.90;;;9.30;77.40;;;;;;4766799;30;20048;-78
2021/04/10 05:57:07;;;;;;;4.68;1.92;;;9.30;77.70;;;;;;4752194;30;20054;-78
2021/04/10 05:59:39;;;;;;;6.22;2.10;;;9.30;77.10;;;;;;4752322;30;20056;-78
2021/04/10 06:02:11;;;;;;;3.28;1.70;;;9.30;77.30;;;;;;4766364;30;20543;-78
2021/04/10 06:04:43;;;;;;;3.40;1.73;;;9.40;76.70;;;;;;4738246;30;20096;-79
2021/04/10 06:07:14;;;;;;;3.30;1.80;;;9.50;77.50;;;;;;4752287;30;20056;-78
2021/04/10 06:09:46;;;;;;;4.47;2.00;;;9.50;77.90;;;;;;4766441;30;20129;-78
2021/04/10 06:17:58;;;;;;;2.40;1.48;;;9.80;77.50;;;;;;5066817;24;20423;-79
2021/04/10 06:20:30;;;;;;;4.80;1.70;;;9.80;76.20;;;;;;4785032;30;20059;-79
2021/04/10 06:29:09;;;;;;;3.45;1.80;;;9.90;76.70;;;;;;5456985;24;20079;-79
2021/04/10 06:31:51;;;;;;;3.83;2.13;;;9.90;76.30;;;;;;4773409;30;20128;-79
2021/04/10 06:58:11;;;;;;;5.97;2.33;;;10.60;78.10;;;;;;4804622;24;20537;-79
2021/04/10 07:00:38;;;;;;;5.47;2.05;;;10.70;77.70;;;;;;4770265;30;20051;-80
2021/04/10 07:07:24;;;;;;;6.97;1.80;;;10.90;76.60;;;;;;4770742;30;20121;-80
2021/04/10 07:09:51;;;;;;;3.72;2.00;;;11.10;78.70;;;;;;4754836;30;20056;-81
2021/04/10 07:22:33;;;;;;;6.65;2.03;;;11.40;74.40;;;;;;5326181;24;20137;-80
2021/04/10 07:25:02;;;;;;;7.72;1.75;;;11.40;75.50;;;;;;4756459;30;20083;-80
2021/04/10 07:27:34;;;;;;;3.53;1.40;;;11.50;76.50;;;;;;4769669;30;20113;-79
2021/04/10 07:30:00;;;;;;;3.60;2.55;;;11.60;74.10;;;;;;4771292;30;20466;-79
2021/04/10 07:35:23;;;;;;;3.60;2.13;;;11.70;73.60;;;;;;4836430;24;20056;-79
2021/04/10 07:37:54;;;;;;;4.47;2.10;;;11.70;73.40;;;;;;4755460;30;20058;-81
2021/04/10 07:40:27;;;;;;;3.50;1.80;;;11.70;72.40;;;;;;4769740;30;20048;-80
2021/04/10 07:45:36;;;;;;;3.72;2.08;;;11.60;72.40;;;;;;4746434;30;20045;-80
2021/04/10 07:48:10;;;;;;;3.45;1.80;;;11.70;72.80;;;;;;4734668;30;20107;-80
2021/04/10 07:50:38;;;;;;;3.92;1.85;;;11.70;72.90;;;;;;4734395;30;20053;-81
2021/04/10 08:19:30;;;;;;;3.28;1.63;;;12.10;74.00;;;;;;5789957;24;20933;-80
2021/04/10 08:21:56;;;;;;;5.00;2.00;;;12.10;73.70;;;;;;4753465;30;20067;-80
2021/04/10 08:24:34;;;;;;;6.03;2.22;;;12.10;74.30;;;;;;4755804;30;20047;-80
2021/04/10 08:27:14;;;;;;;15.50;2.30;;;12.10;75.90;;;;;;4740556;30;20509;-79
2021/04/10 08:29:46;;;;;;;5.30;1.80;;;12.10;73.40;;;;;;4754486;30;20068;-80
2021/04/10 08:47:20;;;;;;;7.68;1.75;;;12.30;74.30;;;;;;5114147;24;20062;-80
2021/04/10 08:49:49;;;;;;;4.65;2.13;;;12.40;74.90;;;;;;4757761;30;20051;-80
2021/04/10 08:52:28;;;;;;;4.68;1.80;;;12.40;74.00;;;;;;4743817;30;20139;-80
2021/04/10 08:55:01;;;;;;;3.45;1.60;;;12.50;73.60;;;;;;4744579;30;20062;-80
2021/04/10 08:57:39;;;;;;;3.38;1.80;;;12.50;73.90;;;;;;4744075;30;20059;-79
2021/04/10 09:00:27;;;;;;;3.03;2.05;;;12.50;75.60;;;;;;4744122;30;20047;-83
2021/04/10 09:03:00;;;;;;;3.53;1.73;;;12.50;73.40;;;;;;5511093;24;20040;-79
2021/04/10 09:05:50;;;;;;;3.78;1.60;;;12.50;75.30;;;;;;4773924;30;20122;-79
2021/04/10 09:08:28;;;;;;;3.33;1.80;;;12.60;77.10;;;;;;4760817;30;20071;-78
2021/04/10 09:10:57;;;;;;;4.00;1.58;;;12.70;75.50;;;;;;4776027;29;20135;-80
2021/04/10 09:14:31;;;;;;;2.92;1.65;;;12.70;74.20;;;;;;4775752;30;20051;-79
2021/04/10 09:17:00;;;;;;;5.68;2.03;;;12.60;73.50;;;;;;4739374;30;20124;-79
2021/04/10 09:19:29;;;;;;;4.60;2.53;;;12.60;74.50;;;;;;4724676;30;20056;-79
2021/04/10 09:24:56;;;;;;;2.40;1.75;;;12.70;74.20;;;;;;5038255;24;20150;-80
2021/04/10 09:27:25;;;;;;;2.75;1.90;;;12.90;75.10;;;;;;4762824;30;20055;-79
2021/04/10 09:30:05;;;;;;;4.60;1.80;;;13.00;74.20;;;;;;4777726;30;20051;-79
2021/04/10 09:53:00;;;;;;;2.83;2.45;;;14.10;67.10;;;;;;4782150;30;20082;-78
2021/04/10 09:55:29;;;;;;;5.78;2.25;;;14.30;66.60;;;;;;4761044;30;20079;-77
2021/04/10 09:58:05;;;;;;;3.78;1.73;;;14.50;67.70;;;;;;4775922;29;20051;-78
2021/04/10 10:00:34;;;;;;;7.45;2.22;;;14.70;67.00;;;;;;4760722;30;20515;-79
2021/04/10 10:03:03;;;;;;;4.10;2.35;;;14.70;61.90;;;;;;4774223;30;20055;-78
2021/04/10 10:05:31;;;;;;;3.08;1.77;;;14.60;60.90;;;;;;4774051;30;20071;-78
2021/04/10 10:08:08;;;;;;;4.50;2.03;;;14.40;62.10;;;;;;4759387;30;20062;-78
2021/04/10 10:10:42;;;;;;;4.60;2.42;;;14.30;62.90;;;;;;4759140;30;20407;-80
2021/04/10 10:13:15;;;;;;;4.80;2.10;;;14.40;62.60;;;;;;4758667;30;20052;-78
2021/04/10 10:15:49;;;;;;;8.35;2.20;;;14.50;61.40;;;;;;4772868;30;20052;-78
2021/04/10 10:18:26;;;;;;;3.92;2.30;;;14.40;60.80;;;;;;4774219;30;20055;-79
2021/04/10 10:20:59;;;;;;;3.25;1.98;;;14.50;61.50;;;;;;4760637;29;20055;-78
2021/04/10 10:23:39;;;;;;;5.87;2.30;;;14.60;59.90;;;;;;4728276;30;20147;-78
2021/04/10 10:26:20;;;;;;;4.88;2.03;;;14.80;61.70;;;;;;4726985;30;20052;-78
2021/04/10 10:28:49;;;;;;;4.63;1.88;;;15.00;59.90;;;;;;4726601;30;20555;-78
2021/04/10 10:34:24;;;;;;;3.38;1.67;;;15.00;56.90;;;;;;5138135;24;20061;-78
2021/04/10 10:37:05;;;;;;;4.30;2.15;;;15.00;56.70;;;;;;4777229;30;20062;-78
2021/04/10 10:39:35;;;;;;;3.70;2.33;;;15.10;57.40;;;;;;4776964;30;20047;-78
2021/04/10 10:44:48;;;;;;;5.88;2.50;;;15.30;57.80;;;;;;4772324;30;20071;-79
2021/04/10 10:47:14;;;;;;;3.28;1.90;;;15.40;56.70;;;;;;4757607;30;20044;-80
2021/04/10 10:49:47;;;;;;;6.68;2.03;;;15.30;58.10;;;;;;4766362;30;20163;-80
2021/04/10 10:52:29;;;;;;;3.83;2.35;;;15.20;57.40;;;;;;4792202;30;20149;-78
2021/04/10 10:55:03;;;;;;;4.90;2.10;;;15.30;57.60;;;;;;4761638;30;20052;-78
2021/04/10 10:57:30;;;;;;;2.95;2.00;;;15.40;56.80;;;;;;4755804;30;20109;-78
2021/04/10 10:59:56;;;;;;;3.80;1.95;;;15.40;55.90;;;;;;4757765;30;20051;-78
2021/04/10 11:02:39;;;;;;;4.28;2.35;;;15.40;54.50;;;;;;4773699;30;20150;-78
2021/04/10 11:05:08;;;;;;;4.45;2.55;;;15.40;55.60;;;;;;4724165;30;20056;-78
2021/04/10 11:07:40;;;;;;;;;;;15.40;56.00;;;;;;4740388;30;20082;-78
2021/04/10 11:10:08;;;;;;;3.38;2.33;;;15.30;54.80;;;;;;4738508;30;19926;-78
2021/04/10 11:12:39;;;;;;;4.07;2.20;;;15.40;53.70;;;;;;4724033;30;20487;-78
2021/04/10 11:15:07;;;;;;;4.55;2.45;;;15.40;54.00;;;;;;4723809;30;20056;-78
2021/04/10 11:17:39;;;;;;;5.73;2.60;;;15.50;55.00;;;;;;4738260;30;20056;-79
2021/04/10 11:20:31;;;;;;;3.92;2.20;;;15.60;54.40;;;;;;4724074;30;20151;-78
2021/04/10 11:23:08;;;;;;;5.85;2.67;;;15.70;55.80;;;;;;4737699;30;20055;-78
2021/04/10 11:25:49;;;;;;;3.60;2.58;;;15.70;54.00;;;;;;4723163;30;20060;-78
2021/04/10 11:28:31;;;;;;;6.75;3.33;;;15.80;56.20;;;;;;4728195;30;20055;-77
2021/04/10 11:31:09;;;;;;;6.80;4.63;;;15.80;54.80;;;;;;4742843;30;20044;-79
2021/04/10 11:33:46;;;;;;;5.30;2.78;;;15.80;54.70;;;;;;4758548;30;20492;-78
2021/04/10 11:36:13;;;;;;;4.65;2.63;;;15.80;53.70;;;;;;4757802;30;20040;-78
2021/04/10 11:39:10;;;;;;;5.90;3.83;;;15.80;56.10;;;;;;4740498;30;20050;-78
2021/04/10 11:47:45;;;;;;;5.65;2.85;;;15.80;53.60;;;;;;5507009;24;20086;-78
2021/04/10 11:50:17;;;;;;;6.85;5.10;;;16.00;53.90;;;;;;4774137;30;20047;-78
2021/04/10 11:52:46;;;;;;;4.03;2.67;;;16.10;54.80;;;;;;4773085;30;20047;-78
2021/04/10 11:55:18;;;;;;;;;;;16.30;54.60;;;;;;4776566;30;20053;-79
2021/04/10 11:57:56;;;;;;;3.95;1.80;;;16.40;51.60;;;;;;4775796;30;20005;-78
2021/04/10 12:00:28;;;;;;;5.00;2.40;;;16.40;51.50;;;;;;4790558;30;20055;-78
2021/04/10 12:03:06;;;;;;;4.18;3.55;;;16.50;53.20;;;;;;4775474;30;20404;-78
2021/04/10 12:05:43;;;;;;;6.03;2.57;;;16.60;51.50;;;;;;4775324;30;20051;-79
2021/04/10 12:08:28;;;;;;;3.97;1.90;;;16.70;53.20;;;;;;4761165;30;20059;-79
2021/04/10 12:36:06;;;;;;;3.85;2.80;;;16.80;48.70;;;;;;4770758;30;20056;-78
2021/04/10 12:38:33;;;;;;;6.82;3.25;;;17.00;49.30;;;;;;4756828;30;20090;-78
2021/04/10 12:41:00;;;;;;;5.00;4.30;;;17.10;49.30;;;;;;4771574;30;20078;-78
2021/04/10 12:43:31;;;;;;;5.72;3.35;;;17.10;50.50;;;;;;4742717;30;20066;-78
2021/04/10 12:45:58;;;;;;;4.70;3.25;;;17.00;50.10;;;;;;4742073;30;20113;-78
2021/04/10 12:48:25;;;;;;;5.75;3.35;;;16.80;50.80;;;;;;4756912;30;20443;-77
2021/04/10 12:55:38;;;;;;;4.32;2.15;;;17.00;49.80;;;;;;4772868;30;20126;-78
2021/04/10 12:58:09;;;;;;;3.75;2.53;;;17.10;50.40;;;;;;4736252;30;20058;-78
2021/04/10 13:00:42;;;;;;;6.60;3.80;;;17.30;50.10;;;;;;4738617;30;20058;-78
2021/04/10 13:03:13;;;;;;;5.75;2.63;;;17.30;49.00;;;;;;5181604;24;20056;-78
2021/04/10 13:05:45;;;;;;;5.88;2.95;;;17.30;49.00;;;;;;4738903;30;20052;-78
2021/04/10 13:08:11;;;;;;;20.38;14.82;;;17.50;48.80;;;;;;4738375;30;20090;-78
2021/04/10 13:10:43;;;;;;;8.07;5.55;;;17.50;47.30;;;;;;4738755;30;20066;-78
2021/04/10 13:13:14;;;;;;;3.25;2.90;;;17.50;46.30;;;;;;4706954;30;20062;-78
2021/04/10 13:15:41;;;;;;;6.53;4.40;;;17.50;46.10;;;;;;4735316;30;20424;-78
2021/04/10 13:18:13;;;;;;;10.73;6.18;;;17.50;46.60;;;;;;4720893;30;20061;-78
2021/04/10 13:20:44;;;;;;;22.38;11.52;;;17.50;47.10;;;;;;4712862;30;20052;-78
2021/04/10 13:23:11;;;;;;;4.57;2.80;;;17.20;48.50;;;;;;4752389;30;20411;-78
2021/04/10 13:25:42;;;;;;;4.95;2.88;;;17.20;47.20;;;;;;4752556;30;20056;-78
2021/04/10 13:28:09;;;;;;;6.60;4.82;;;17.30;48.00;;;;;;4752124;30;20090;-78
2021/04/10 13:30:43;;;;;;;15.40;9.38;;;17.30;47.50;;;;;;4737760;30;20074;-78
2021/04/10 14:07:59;;;;;;;3.53;1.88;;;19.50;43.60;;;;;;4753567;30;20137;-80
2021/04/10 14:10:26;;;;;;;4.75;2.10;;;19.40;42.20;;;;;;4740543;30;20075;-79
2021/04/10 14:12:58;;;;;;;2.72;1.60;;;19.50;42.00;;;;;;4749847;24;20048;-78
2021/04/10 14:15:34;;;;;;;5.55;1.70;;;19.30;41.30;;;;;;4769783;29;20051;-78
2021/04/10 14:18:10;;;;;;;3.25;1.80;;;19.00;42.30;;;;;;4785200;29;20124;-80
2021/04/10 14:20:43;;;;;;;3.83;1.75;;;18.90;42.00;;;;;;4790661;29;20609;-79
2021/04/10 14:23:18;;;;;;;3.05;1.88;;;19.00;43.60;;;;;;5163164;24;20051;-79
2021/04/10 14:25:50;;;;;;;4.07;2.10;;;18.90;42.30;;;;;;4755860;30;20058;-80
2021/04/10 14:28:22;;;;;;;3.50;1.73;;;18.40;42.70;;;;;;4755718;30;20059;-79
2021/04/10 14:37:14;;;;;;;3.10;1.70;;;17.90;44.80;;;;;;4818055;24;20060;-79
2021/04/10 14:43:37;;;;;;;6.93;2.05;;;17.60;46.70;;;;;;4751964;30;20048;-79
2021/04/10 14:46:04;;;;;;;5.05;2.13;;;17.40;46.80;;;;;;4752024;30;20094;-79
2021/04/10 14:48:30;;;;;;;3.58;1.90;;;17.40;48.00;;;;;;4751774;30;20150;-79
2021/04/10 14:59:59;;;;;;;3.85;1.50;;;17.40;47.60;;;;;;5073536;24;20081;-78
2021/04/10 15:02:33;;;;;;;3.40;1.70;;;17.30;46.10;;;;;;4771856;30;20165;-78
2021/04/10 15:05:11;;;;;;;2.67;1.40;;;17.60;46.40;;;;;;4772127;30;20420;-78
2021/04/10 15:07:43;;;;;;;2.45;1.75;;;17.90;45.90;;;;;;4758145;30;20055;-79
2021/04/10 15:10:17;;;;;;;3.60;1.60;;;17.90;45.20;;;;;;4758162;30;20108;-79
2021/04/10 15:19:25;;;;;;;3.30;1.40;;;17.70;46.10;;;;;;5162142;24;20424;-80
2021/04/10 15:21:56;;;;;;;2.25;1.33;;;17.50;47.00;;;;;;4754230;30;20047;-79
2021/04/10 15:24:28;;;;;;;2.38;1.38;;;17.20;47.10;;;;;;4770425;30;20048;-79
2021/04/10 15:26:59;;;;;;;1.98;1.50;;;17.10;46.50;;;;;;4754443;30;20056;-79
2021/04/10 15:29:26;;;;;;;3.38;1.42;;;17.00;47.30;;;;;;4743267;30;20056;-80
2021/04/10 16:11:42;;;;;;;3.33;1.30;;;16.60;49.20;;;;;;4864904;24;20063;-77
2021/04/10 16:14:14;;;;;;;3.58;1.48;;;16.50;49.00;;;;;;4742894;30;20095;-78
2021/04/10 16:16:42;;;;;;;3.13;1.58;;;16.40;49.80;;;;;;4742502;30;20076;-78
2021/04/10 16:19:15;;;;;;;2.95;1.20;;;16.40;48.30;;;;;;4758215;30;20075;-80
2021/04/10 16:36:17;;;;;;;3.65;1.30;;;16.10;49.10;;;;;;4965437;24;20777;-78
2021/04/10 16:38:44;;;;;;;5.22;2.28;;;16.00;53.20;;;;;;4749565;30;20052;-79
2021/04/10 16:44:11;;;;;;;5.72;1.65;;;15.90;55.40;;;;;;5287545;24;20507;-79
2021/04/10 16:46:38;;;;;;;2.72;1.10;;;15.80;58.30;;;;;;4741903;30;20423;-78
2021/04/10 16:49:09;;;;;;;4.38;1.42;;;15.70;59.10;;;;;;4742602;30;20052;-79
2021/04/10 16:51:41;;;;;;;3.83;1.38;;;15.70;59.80;;;;;;4742441;30;20050;-79
2021/04/10 16:54:12;;;;;;;4.47;1.25;;;15.60;60.00;;;;;;4742128;30;20062;-79
2021/04/10 16:56:44;;;;;;;11.07;1.85;;;15.50;61.20;;;;;;4756202;30;20054;-78
2021/04/10 16:59:16;;;;;;;3.42;1.00;;;15.40;62.20;;;;;;4742343;30;20236;-79
2021/04/10 17:04:37;;;;;;;3.10;1.25;;;15.20;62.70;;;;;;5330925;24;20055;-79
2021/04/10 17:07:11;;;;;;;4.35;1.70;;;15.20;64.80;;;;;;4755882;30;20056;-79
2021/04/10 17:09:40;;;;;;;2.83;1.55;;;15.10;65.80;;;;;;4756356;30;20500;-79
2021/04/10 17:15:33;;;;;;;16.27;6.20;;;14.90;66.60;;;;;;5112591;24;20148;-78
2021/04/10 17:18:05;;;;;;;40.42;21.73;;;14.80;66.90;;;;;;4756261;30;20040;-78
2021/04/10 17:20:37;;;;;;;19.15;10.07;;;14.70;69.00;;;;;;4741300;30;20075;-78
2021/04/10 17:23:11;;;;;;;26.10;13.45;;;14.70;69.20;;;;;;4761961;30;20052;-78
2021/04/10 17:25:45;;;;;;;6.10;4.90;;;14.60;70.50;;;;;;4752677;30;20102;-78
2021/04/10 17:28:12;;;;;;;5.10;4.60;;;14.50;72.30;;;;;;4737905;30;20076;-79
2021/04/10 17:30:39;;;;;;;3.60;3.30;;;14.50;74.00;;;;;;4752841;30;20056;-80
2021/04/10 17:41:42;;;;;;;4.82;2.20;;;14.00;81.50;;;;;;4733515;30;20513;-77
2021/04/10 17:44:09;;;;;;;3.08;1.83;;;13.90;82.50;;;;;;4720869;30;20083;-77
2021/04/10 17:46:40;;;;;;;5.13;2.03;;;13.80;83.50;;;;;;4706932;30;20053;-77
2021/04/10 17:49:12;;;;;;;2.40;1.90;;;13.70;83.60;;;;;;4734824;30;20055;-77
2021/04/10 18:07:13;;;;;;;3.10;1.98;;;12.90;94.10;;;;;;5751831;24;21373;-79
2021/04/10 18:09:45;;;;;;;2.50;1.75;;;12.80;94.30;;;;;;4762951;29;20423;-78
2021/04/10 18:13:04;;;;;;;4.10;1.77;;;12.70;94.00;;;;;;4738878;30;20520;-77
2021/04/10 18:15:33;;;;;;;3.53;2.15;;;12.70;94.00;;;;;;4719576;30;20056;-78
2021/04/10 18:18:05;;;;;;;5.03;2.25;;;12.60;94.60;;;;;;4720458;30;20047;-78
2021/04/10 18:20:37;;;;;;;2.42;1.25;;;12.60;95.30;;;;;;4733751;30;20504;-77
2021/04/10 18:23:10;;;;;;;2.47;1.75;;;12.40;95.90;;;;;;4718755;30;20053;-77
2021/04/10 18:25:42;;;;;;;2.50;0.93;;;12.30;96.10;;;;;;4731509;30;20528;-78
2021/04/10 18:28:13;;;;;;;2.00;1.27;;;12.20;96.00;;;;;;4736819;30;20538;-77
2021/04/10 18:30:45;;;;;;;3.47;1.65;;;12.10;95.60;;;;;;4737903;30;20135;-77
2021/04/10 18:33:22;;;;;;;2.88;1.48;;;12.20;95.20;;;;;;4751525;30;20068;-77
2021/04/10 18:35:51;;;;;;;3.13;1.45;;;12.10;95.50;;;;;;4737476;30;20044;-78